createdAt,value
2022-12-25T07:06:18.884Z,5.04
2022-12-25T07:07:20.932Z,5.06
2022-12-25T07:08:22.937Z,5.09
2022-12-25T07:09:25.077Z,5.11
2022-12-25T07:10:27.097Z,5.17
2022-12-25T07:11:29.107Z,5.19
2022-12-25T07:12:31.127Z,5.22
2022-12-25T07:13:33.216Z,5.27
2022-12-25T07:14:35.251Z,5.28
2022-12-25T07:15:38.223Z,5.28
2022-12-25T07:16:39.160Z,5.31
2022-12-25T07:17:40.733Z,5.31
2022-12-25T07:18:42.763Z,5.34
2022-12-25T07:19:45.571Z,5.35
2022-12-25T07:20:46.542Z,5.35
2022-12-25T07:21:48.557Z,5.40
2022-12-25T07:22:50.562Z,5.42
2022-12-25T07:23:52.628Z,5.35
2022-12-25T07:24:54.620Z,5.38
2022-12-25T07:25:56.637Z,5.38
2022-12-25T07:26:58.653Z,5.46
2022-12-25T07:28:00.684Z,5.46
2022-12-25T07:29:02.707Z,5.49
2022-12-25T07:30:04.728Z,5.54
2022-12-25T07:31:06.730Z,5.54
2022-12-25T07:32:08.776Z,5.54
2022-12-25T07:33:10.791Z,5.59
2022-12-25T07:34:12.850Z,5.59
2022-12-25T07:35:14.884Z,5.62
2022-12-25T07:36:16.908Z,5.64
2022-12-25T07:37:18.913Z,5.65
2022-12-25T07:38:20.938Z,5.65
2022-12-25T07:39:22.971Z,5.66
2022-12-25T07:40:24.963Z,5.71
2022-12-25T07:41:26.996Z,5.71
2022-12-25T07:42:29.006Z,5.73
2022-12-25T07:43:31.035Z,5.76
2022-12-25T07:44:33.062Z,5.83
2022-12-25T07:45:35.147Z,5.83
2022-12-25T07:46:37.135Z,5.89
2022-12-25T07:47:39.165Z,5.82
2022-12-25T07:48:41.203Z,5.84
2022-12-25T07:49:43.202Z,5.86
2022-12-25T07:50:45.221Z,5.86
2022-12-25T07:51:47.256Z,5.90
2022-12-25T07:52:49.273Z,5.91
2022-12-25T07:53:51.293Z,6.01
2022-12-25T07:54:53.348Z,6.09
2022-12-25T07:55:55.350Z,6.16
2022-12-25T07:56:57.369Z,6.25
2022-12-25T07:57:59.379Z,6.32
2022-12-25T07:59:01.384Z,6.38
2022-12-25T08:00:03.433Z,6.41
2022-12-25T08:01:05.568Z,6.44
2022-12-25T08:02:06.868Z,6.44
2022-12-25T08:03:08.255Z,6.51
2022-12-25T08:04:09.519Z,6.47
2022-12-25T08:05:11.537Z,6.50
2022-12-25T08:06:13.545Z,6.51
2022-12-25T08:07:15.571Z,6.51
2022-12-25T08:08:17.593Z,6.51
2022-12-25T08:09:19.610Z,6.53
2022-12-25T08:10:21.654Z,6.50
2022-12-25T08:11:23.678Z,6.50
2022-12-25T08:12:25.685Z,6.50
2022-12-25T08:13:27.731Z,6.53
2022-12-25T08:14:29.729Z,6.56
2022-12-25T08:15:31.767Z,6.58
2022-12-25T08:16:33.869Z,6.62
2022-12-25T08:17:35.884Z,6.68
2022-12-25T08:18:37.918Z,6.73
2022-12-25T08:19:39.913Z,6.78
2022-12-25T08:20:41.948Z,6.86
2022-12-25T08:21:43.973Z,6.92
2022-12-25T08:22:45.987Z,6.92
2022-12-25T08:23:48.010Z,6.96
2022-12-25T08:24:50.038Z,6.95
2022-12-25T08:25:52.075Z,7.02
2022-12-25T08:26:54.094Z,6.97
2022-12-25T08:27:56.092Z,6.97
2022-12-25T08:28:58.130Z,6.96
2022-12-25T08:30:00.174Z,6.99
2022-12-25T08:31:01.485Z,7.06
2022-12-25T08:32:03.498Z,7.07
2022-12-25T08:33:05.534Z,7.11
2022-12-25T08:34:07.569Z,7.17
2022-12-25T08:35:09.582Z,7.24
2022-12-25T08:36:11.650Z,7.29
2022-12-25T08:37:13.676Z,7.38
2022-12-25T08:38:15.687Z,7.43
2022-12-25T08:39:17.704Z,7.56
2022-12-25T08:40:19.724Z,7.63
2022-12-25T08:41:21.743Z,7.71
2022-12-25T08:42:23.774Z,7.69
2022-12-25T08:43:25.792Z,7.68
2022-12-25T08:44:27.807Z,7.75
2022-12-25T08:45:34.694Z,7.78
2022-12-25T08:46:31.307Z,7.87
2022-12-25T08:47:33.301Z,7.96
2022-12-25T08:48:35.317Z,8.05
2022-12-25T08:49:37.330Z,8.12
2022-12-25T08:50:39.447Z,8.17
2022-12-25T08:51:41.452Z,8.22
2022-12-25T08:52:43.491Z,8.25
2022-12-25T08:53:45.517Z,8.23
2022-12-25T08:54:47.537Z,8.19
2022-12-25T08:55:49.553Z,8.25
2022-12-25T08:57:03.019Z,8.29
2022-12-25T08:57:53.081Z,8.29
2022-12-25T08:58:55.127Z,8.27
2022-12-25T08:59:57.123Z,8.30
2022-12-25T09:01:00.173Z,8.38
2022-12-25T09:02:01.218Z,8.42
2022-12-25T09:03:03.293Z,8.51
2022-12-25T09:04:05.431Z,8.60
2022-12-25T09:05:07.465Z,8.63
2022-12-25T09:06:09.483Z,8.67
2022-12-25T09:07:11.505Z,8.64
2022-12-25T09:08:13.523Z,8.64
2022-12-25T09:09:16.512Z,8.66
2022-12-25T09:10:17.430Z,8.70
2022-12-25T09:11:19.591Z,8.71
2022-12-25T09:12:21.617Z,8.73
2022-12-25T09:13:23.625Z,8.76
2022-12-25T09:14:25.671Z,8.81
2022-12-25T09:15:27.785Z,8.89
2022-12-25T09:16:29.884Z,8.95
2022-12-25T09:17:31.910Z,9.02
2022-12-25T09:18:33.899Z,9.04
2022-12-25T09:19:35.916Z,9.10
2022-12-25T09:20:37.921Z,9.12
2022-12-25T09:21:39.977Z,9.09
2022-12-25T09:22:42.013Z,9.04
2022-12-25T09:23:44.032Z,9.06
2022-12-25T09:24:46.048Z,9.00
2022-12-25T09:25:48.084Z,9.00
2022-12-25T09:26:50.110Z,9.04
2022-12-25T09:27:52.160Z,9.07
2022-12-25T09:28:54.190Z,9.09
2022-12-25T09:29:56.197Z,9.10
2022-12-25T09:30:58.256Z,9.13
2022-12-25T09:32:00.248Z,9.10
2022-12-25T09:33:01.747Z,9.18
2022-12-25T09:34:03.792Z,9.25
2022-12-25T09:35:05.790Z,9.28
2022-12-25T09:36:07.803Z,9.28
2022-12-25T09:37:09.845Z,9.27
2022-12-25T09:38:11.892Z,9.27
2022-12-25T09:39:13.899Z,9.30
2022-12-25T09:40:15.929Z,9.25
2022-12-25T09:41:17.957Z,9.22
2022-12-25T09:42:19.972Z,9.18
2022-12-25T09:43:21.984Z,9.17
2022-12-25T09:44:24.038Z,9.13
2022-12-25T09:45:26.043Z,9.17
2022-12-25T09:46:36.433Z,9.17
2022-12-25T09:47:29.510Z,9.22
2022-12-25T09:48:31.555Z,9.27
2022-12-25T09:49:33.536Z,9.33
2022-12-25T09:50:35.582Z,9.45
2022-12-25T09:51:37.604Z,9.50
2022-12-25T09:52:39.622Z,9.55
2022-12-25T09:53:41.633Z,9.65
2022-12-25T09:54:43.670Z,9.73
2022-12-25T09:55:45.671Z,9.79
2022-12-25T09:56:47.706Z,9.84
2022-12-25T09:57:49.711Z,10.02
2022-12-25T09:58:51.721Z,10.16
2022-12-25T09:59:53.746Z,10.28
2022-12-25T10:00:55.788Z,10.38
2022-12-25T10:01:57.957Z,10.41
2022-12-25T10:02:59.245Z,10.42
2022-12-25T10:04:00.397Z,10.41
2022-12-25T10:05:02.475Z,10.42
2022-12-25T10:06:04.498Z,10.50
2022-12-25T10:07:06.513Z,10.56
2022-12-25T10:08:08.535Z,10.56
2022-12-25T10:09:10.587Z,10.58
2022-12-25T10:10:12.621Z,10.59
2022-12-25T10:11:14.672Z,10.59
2022-12-25T10:12:16.692Z,10.55
2022-12-25T10:13:18.701Z,10.52
2022-12-25T10:14:20.737Z,10.52
2022-12-25T10:15:22.775Z,10.48
2022-12-25T10:16:24.869Z,10.46
2022-12-25T10:17:26.877Z,10.35
2022-12-25T10:18:28.897Z,10.35
2022-12-25T10:19:30.949Z,10.37
2022-12-25T10:20:32.970Z,10.37
2022-12-25T10:21:35.010Z,10.46
2022-12-25T10:22:37.025Z,10.42
2022-12-25T10:23:39.070Z,10.48
2022-12-25T10:24:41.098Z,10.56
2022-12-25T10:25:43.125Z,10.67
2022-12-25T10:26:45.149Z,10.78
2022-12-25T10:27:47.175Z,10.88
2022-12-25T10:28:49.224Z,10.88
2022-12-25T10:29:51.271Z,10.96
2022-12-25T10:30:53.439Z,11.06
2022-12-25T10:31:55.478Z,11.10
2022-12-25T10:32:57.481Z,11.11
2022-12-25T10:33:59.485Z,11.16
2022-12-25T10:35:01.586Z,11.10
2022-12-25T10:36:03.593Z,11.41
2022-12-25T10:37:05.625Z,11.45
2022-12-25T10:38:07.646Z,11.47
2022-12-25T10:39:09.667Z,11.50
2022-12-25T10:40:11.750Z,11.57
2022-12-25T10:41:13.775Z,11.65
2022-12-25T10:42:15.800Z,11.54
2022-12-25T10:43:17.830Z,11.60
2022-12-25T10:44:19.869Z,11.66
2022-12-25T10:45:21.905Z,11.78
2022-12-25T10:46:23.996Z,11.75
2022-12-25T10:47:26.010Z,11.81
2022-12-25T10:48:28.060Z,11.70
2022-12-25T10:49:30.104Z,11.73
2022-12-25T10:50:32.134Z,11.69
2022-12-25T10:51:34.163Z,11.63
2022-12-25T10:52:36.165Z,11.45
2022-12-25T10:53:38.205Z,11.33
2022-12-25T10:54:40.260Z,11.18
2022-12-25T10:55:42.291Z,11.23
2022-12-25T10:56:44.322Z,11.18
2022-12-25T10:57:46.332Z,11.18
2022-12-25T10:58:48.350Z,11.29
2022-12-25T10:59:50.380Z,11.27
2022-12-25T11:00:52.427Z,11.35
2022-12-25T11:01:55.662Z,11.37
2022-12-25T11:02:55.916Z,11.47
2022-12-25T11:03:57.023Z,11.52
2022-12-25T11:04:59.028Z,11.60
2022-12-25T11:06:01.060Z,11.63
2022-12-25T11:07:03.129Z,11.70
2022-12-25T11:08:05.146Z,11.68
2022-12-25T11:09:07.167Z,11.70
2022-12-25T11:10:09.188Z,11.69
2022-12-25T11:11:11.220Z,11.72
2022-12-25T11:12:13.244Z,11.68
2022-12-25T11:13:15.287Z,11.62
2022-12-25T11:14:17.332Z,11.65
2022-12-25T11:15:19.380Z,11.63
2022-12-25T11:16:21.501Z,11.59
2022-12-25T11:17:23.510Z,11.47
2022-12-25T11:18:26.139Z,11.41
2022-12-25T11:19:27.106Z,11.32
2022-12-25T11:20:29.123Z,11.22
2022-12-25T11:21:31.175Z,11.09
2022-12-25T11:22:33.189Z,10.88
2022-12-25T11:23:35.195Z,10.81
2022-12-25T11:24:37.232Z,10.77
2022-12-25T11:25:39.260Z,10.71
2022-12-25T11:26:41.294Z,10.70
2022-12-25T11:27:43.327Z,10.68
2022-12-25T11:28:45.334Z,10.62
2022-12-25T11:29:47.384Z,10.55
2022-12-25T11:30:49.411Z,10.52
2022-12-25T11:31:51.484Z,10.50
2022-12-25T11:32:53.582Z,10.50
2022-12-25T11:33:55.601Z,10.49
2022-12-25T11:34:57.610Z,10.44
2022-12-25T11:35:59.655Z,10.49
2022-12-25T11:37:01.705Z,10.49
2022-12-25T11:38:03.727Z,10.48
2022-12-25T11:39:05.751Z,10.46
2022-12-25T11:40:07.770Z,10.49
2022-12-25T11:41:09.786Z,10.49
2022-12-25T11:42:11.866Z,10.48
2022-12-25T11:43:13.881Z,10.46
2022-12-25T11:44:15.931Z,10.50
2022-12-25T11:45:17.943Z,10.48
2022-12-25T11:46:20.025Z,10.44
2022-12-25T11:47:22.056Z,10.44
2022-12-25T11:48:24.101Z,10.44
2022-12-25T11:49:26.124Z,10.46
2022-12-25T11:50:28.178Z,10.49
2022-12-25T11:51:30.212Z,10.46
2022-12-25T11:52:32.257Z,10.53
2022-12-25T11:53:34.275Z,10.55
2022-12-25T11:54:36.289Z,10.63
2022-12-25T11:55:38.319Z,10.63
2022-12-25T11:56:40.341Z,10.63
2022-12-25T11:57:42.410Z,10.67
2022-12-25T11:58:44.438Z,10.66
2022-12-25T11:59:46.468Z,10.70
2022-12-25T12:00:48.497Z,10.68
2022-12-25T12:01:50.668Z,10.70
2022-12-25T12:02:51.775Z,10.80
2022-12-25T12:03:53.869Z,10.81
2022-12-25T12:04:55.930Z,10.83
2022-12-25T12:05:57.953Z,10.91
2022-12-25T12:07:00.000Z,10.95
2022-12-25T12:08:02.021Z,10.96
2022-12-25T12:09:04.026Z,11.01
2022-12-25T12:10:06.052Z,11.10
2022-12-25T12:11:08.087Z,11.14
2022-12-25T12:12:10.105Z,11.23
2022-12-25T12:13:12.155Z,11.32
2022-12-25T12:14:14.198Z,11.35
2022-12-25T12:15:16.242Z,11.41
2022-12-25T12:16:18.296Z,11.47
2022-12-25T12:17:20.326Z,11.41
2022-12-25T12:18:22.410Z,11.37
2022-12-25T12:19:24.418Z,11.36
2022-12-25T12:20:26.440Z,11.35
2022-12-25T12:21:28.481Z,11.36
2022-12-25T12:22:30.530Z,11.33
2022-12-25T12:23:32.537Z,11.18
2022-12-25T12:24:34.561Z,11.09
2022-12-25T12:25:36.605Z,11.11
2022-12-25T12:26:38.647Z,11.17
2022-12-25T12:27:40.732Z,11.23
2022-12-25T12:28:42.756Z,11.29
2022-12-25T12:29:44.791Z,11.29
2022-12-25T12:30:46.789Z,11.32
2022-12-25T12:31:48.906Z,11.40
2022-12-25T12:32:50.924Z,11.45
2022-12-25T12:33:52.981Z,11.52
2022-12-25T12:34:55.002Z,11.62
2022-12-25T12:35:57.027Z,11.65
2022-12-25T12:36:59.076Z,11.66
2022-12-25T12:38:01.097Z,11.66
2022-12-25T12:39:03.117Z,11.69
2022-12-25T12:40:05.280Z,11.75
2022-12-25T12:41:07.258Z,11.70
2022-12-25T12:42:09.285Z,11.59
2022-12-25T12:43:11.317Z,11.55
2022-12-25T12:44:13.378Z,11.52
2022-12-25T12:45:15.395Z,11.51
2022-12-25T12:46:17.490Z,11.51
2022-12-25T12:47:19.526Z,11.55
2022-12-25T12:48:21.553Z,11.60
2022-12-25T12:49:23.589Z,11.59
2022-12-25T12:50:25.628Z,11.60
2022-12-25T12:51:27.646Z,11.65
2022-12-25T12:52:29.711Z,11.55
2022-12-25T12:53:31.736Z,11.48
2022-12-25T12:54:33.772Z,11.37
2022-12-25T12:55:35.788Z,11.32
2022-12-25T12:56:37.834Z,11.26
2022-12-25T12:57:40.167Z,11.14
2022-12-25T12:58:41.107Z,11.09
2022-12-25T12:59:43.149Z,11.09
2022-12-25T13:00:45.192Z,11.09
2022-12-25T13:01:47.476Z,11.07
2022-12-25T13:02:48.558Z,11.06
2022-12-25T13:03:50.618Z,11.06
2022-12-25T13:04:52.650Z,11.10
2022-12-25T13:05:54.695Z,11.09
2022-12-25T13:06:56.740Z,11.07
2022-12-25T13:07:58.773Z,10.99
2022-12-25T13:09:00.783Z,10.96
2022-12-25T13:10:02.810Z,10.98
2022-12-25T13:11:04.852Z,10.92
2022-12-25T13:12:06.854Z,10.88
2022-12-25T13:13:08.879Z,10.86
2022-12-25T13:14:10.922Z,10.86
2022-12-25T13:15:12.953Z,10.86
2022-12-25T13:16:15.041Z,10.85
2022-12-25T13:17:17.026Z,10.83
2022-12-25T13:18:19.068Z,10.83
2022-12-25T13:19:21.111Z,10.78
2022-12-25T13:20:23.159Z,10.80
2022-12-25T13:21:25.202Z,10.74
2022-12-25T13:22:27.264Z,10.73
2022-12-25T13:23:29.276Z,10.68
2022-12-25T13:24:31.300Z,10.70
2022-12-25T13:25:33.331Z,10.67
2022-12-25T13:26:35.372Z,10.66
2022-12-25T13:27:37.404Z,10.62
2022-12-25T13:28:39.421Z,10.62
2022-12-25T13:29:40.859Z,10.58
2022-12-25T13:30:42.887Z,10.58
2022-12-25T13:31:44.960Z,10.56
2022-12-25T13:32:47.031Z,10.53
2022-12-25T13:33:49.054Z,10.56
2022-12-25T13:34:51.110Z,10.58
2022-12-25T13:35:53.167Z,10.59
2022-12-25T13:36:55.216Z,10.62
2022-12-25T13:37:57.253Z,10.71
2022-12-25T13:38:59.301Z,10.71
2022-12-25T13:40:01.323Z,10.71
2022-12-25T13:41:03.382Z,10.74
2022-12-25T13:42:05.442Z,10.78
2022-12-25T13:43:07.483Z,10.83
2022-12-25T13:44:09.521Z,10.81
2022-12-25T13:45:11.542Z,10.83
2022-12-25T13:46:13.670Z,10.81
2022-12-25T13:47:15.755Z,10.81
2022-12-25T13:48:17.789Z,10.81
2022-12-25T13:49:19.808Z,10.83
2022-12-25T13:50:21.855Z,10.77
2022-12-25T13:51:23.913Z,10.78
2022-12-25T13:52:25.949Z,10.78
2022-12-25T13:53:27.995Z,10.75
2022-12-25T13:54:30.038Z,10.74
2022-12-25T13:55:32.029Z,10.71
2022-12-25T13:56:34.047Z,10.71
2022-12-25T13:57:36.081Z,10.73
2022-12-25T13:58:38.095Z,10.68
2022-12-25T13:59:40.162Z,10.68
2022-12-25T14:00:42.161Z,10.68
2022-12-25T14:01:44.331Z,10.67
2022-12-25T14:02:46.455Z,10.67
2022-12-25T14:03:58.200Z,10.63
2022-12-25T14:04:50.304Z,10.66
2022-12-25T14:05:52.355Z,10.67
2022-12-25T14:06:54.409Z,10.62
2022-12-25T14:07:56.424Z,10.62
2022-12-25T14:08:58.454Z,10.60
2022-12-25T14:10:00.501Z,10.62
2022-12-25T14:11:02.562Z,10.62
2022-12-25T14:12:04.622Z,10.59
2022-12-25T14:13:06.676Z,10.59
2022-12-25T14:14:08.685Z,10.59
2022-12-25T14:15:10.720Z,10.59
2022-12-25T14:16:12.786Z,10.62
2022-12-25T14:17:14.810Z,10.62
2022-12-25T14:18:16.861Z,10.60
2022-12-25T14:19:18.854Z,10.59
2022-12-25T14:20:20.899Z,10.62
2022-12-25T14:21:22.922Z,10.67
2022-12-25T14:22:24.952Z,10.66
2022-12-25T14:23:26.992Z,10.66
2022-12-25T14:24:29.023Z,10.68
2022-12-25T14:25:31.045Z,10.67
2022-12-25T14:26:33.069Z,10.62
2022-12-25T14:27:35.123Z,10.59
2022-12-25T14:28:37.151Z,10.56
2022-12-25T14:29:39.168Z,10.58
2022-12-25T14:30:41.217Z,10.58
2022-12-25T14:31:43.231Z,10.59
2022-12-25T14:32:45.276Z,10.55
2022-12-25T14:33:47.340Z,10.48
2022-12-25T14:34:49.377Z,10.42
2022-12-25T14:35:51.390Z,10.42
2022-12-25T14:36:53.451Z,10.38
2022-12-25T14:37:55.468Z,10.37
2022-12-25T14:38:57.508Z,10.35
2022-12-25T14:39:59.533Z,10.35
2022-12-25T14:41:01.585Z,10.30
2022-12-25T14:42:03.612Z,10.23
2022-12-25T14:43:05.635Z,10.22
2022-12-25T14:44:07.689Z,10.22
2022-12-25T14:45:09.711Z,10.16
2022-12-25T14:46:10.928Z,10.15
2022-12-25T14:47:13.000Z,10.12
2022-12-25T14:48:19.760Z,10.05
2022-12-25T14:49:16.516Z,10.02
2022-12-25T14:50:18.529Z,9.97
2022-12-25T14:51:20.525Z,9.99
2022-12-25T14:53:24.656Z,9.94
2022-12-25T14:54:26.694Z,9.91
2022-12-25T14:55:28.770Z,9.91
